Underwood, Washington
Current Conditions -  °F | °C
As of 5:59 AM on Friday 31 Oct 2014 (Local Time) from K4S2 Reporting Station
Moderate Rain Moderate Rain  
Wind Chill: 54°   Ceiling: 1700
Heat Index: 54°   Visibility: 7mi
Dew Point: 52°   Wind: 0mph
Humidity: 94%   Direction: NA
Pressure: 29.7"   Gusts: NA
Location:  45.73°N, 121.52°W
Report Text: K4S2 311259Z AUTO 00000KT 7SM RA BKN017 BKN060 OVC070 12/11 A2970 RMK AO2 P0001 SLP068 T01200110
Loading
Personal Weather Stations






























Interactive Weather Map
Tropical Storm Tracking
New forecast layout! Learn more

10-Day Weather Forecast

Advertisements
Track Severe Weather on mobile